sensor_id;sensor_type;location;lat;lon;timestamp;temperature;humidity
5196;DHT22;2617;51.006;12.436;2023-04-06T00:03:12;2.20;99.90
5196;DHT22;2617;51.006;12.436;2023-04-06T00:08:15;2.20;99.90
5196;DHT22;2617;51.006;12.436;2023-04-06T00:13:17;2.20;99.90
5196;DHT22;2617;51.006;12.436;2023-04-06T00:18:20;2.20;99.90
5196;DHT22;2617;51.006;12.436;2023-04-06T00:23:22;2.10;99.90
5196;DHT22;2617;51.006;12.436;2023-04-06T00:28:25;2.10;99.90
5196;DHT22;2617;51.006;12.436;2023-04-06T00:33:28;2.10;99.90
5196;DHT22;2617;51.006;12.436;2023-04-06T00:38:32;2.20;99.90
5196;DHT22;2617;51.006;12.436;2023-04-06T00:43:34;2.20;99.90
5196;DHT22;2617;51.006;12.436;2023-04-06T00:48:36;2.20;99.90
5196;DHT22;2617;51.006;12.436;2023-04-06T00:53:39;2.20;99.90
5196;DHT22;2617;51.006;12.436;2023-04-06T00:58:41;2.10;99.90
5196;DHT22;2617;51.006;12.436;2023-04-06T01:03:44;2.10;99.90
5196;DHT22;2617;51.006;12.436;2023-04-06T01:08:46;2.10;99.90
5196;DHT22;2617;51.006;12.436;2023-04-06T01:13:49;2.00;99.90
5196;DHT22;2617;51.006;12.436;2023-04-06T01:18:53;2.00;99.90
5196;DHT22;2617;51.006;12.436;2023-04-06T01:23:56;2.00;99.90
5196;DHT22;2617;51.006;12.436;2023-04-06T01:29:00;2.00;99.90
5196;DHT22;2617;51.006;12.436;2023-04-06T01:34:03;2.00;99.90
5196;DHT22;2617;51.006;12.436;2023-04-06T01:39:06;1.90;99.90
5196;DHT22;2617;51.006;12.436;2023-04-06T01:44:08;2.00;99.90
5196;DHT22;2617;51.006;12.436;2023-04-06T01:49:11;2.00;99.90
5196;DHT22;2617;51.006;12.436;2023-04-06T01:54:13;2.00;99.90
5196;DHT22;2617;51.006;12.436;2023-04-06T01:59:16;2.00;99.90
5196;DHT22;2617;51.006;12.436;2023-04-06T02:04:19;2.00;99.90
5196;DHT22;2617;51.006;12.436;2023-04-06T02:09:21;2.00;99.90
5196;DHT22;2617;51.006;12.436;2023-04-06T02:14:25;2.00;99.90
5196;DHT22;2617;51.006;12.436;2023-04-06T02:19:27;1.90;99.90
5196;DHT22;2617;51.006;12.436;2023-04-06T02:24:30;1.90;99.90
5196;DHT22;2617;51.006;12.436;2023-04-06T02:29:34;1.90;99.90
5196;DHT22;2617;51.006;12.436;2023-04-06T02:34:36;1.80;99.90
5196;DHT22;2617;51.006;12.436;2023-04-06T02:39:38;1.90;99.90
5196;DHT22;2617;51.006;12.436;2023-04-06T02:44:42;1.80;99.90
5196;DHT22;2617;51.006;12.436;2023-04-06T02:49:44;1.80;99.90
5196;DHT22;2617;51.006;12.436;2023-04-06T02:54:47;1.80;99.90
5196;DHT22;2617;51.006;12.436;2023-04-06T02:59:49;1.70;99.90
5196;DHT22;2617;51.006;12.436;2023-04-06T03:04:52;1.70;99.90
5196;DHT22;2617;51.006;12.436;2023-04-06T03:09:55;1.70;99.90
5196;DHT22;2617;51.006;12.436;2023-04-06T03:14:57;1.70;99.90
5196;DHT22;2617;51.006;12.436;2023-04-06T03:20:00;1.70;99.90
5196;DHT22;2617;51.006;12.436;2023-04-06T03:25:04;1.70;99.90
5196;DHT22;2617;51.006;12.436;2023-04-06T03:30:07;1.60;99.90
5196;DHT22;2617;51.006;12.436;2023-04-06T03:35:10;1.60;99.90
5196;DHT22;2617;51.006;12.436;2023-04-06T03:40:12;1.50;99.90
5196;DHT22;2617;51.006;12.436;2023-04-06T03:45:15;1.40;99.90
5196;DHT22;2617;51.006;12.436;2023-04-06T03:50:18;1.40;99.90
5196;DHT22;2617;51.006;12.436;2023-04-06T03:55:20;1.40;99.90
5196;DHT22;2617;51.006;12.436;2023-04-06T04:00:23;1.30;99.90
5196;DHT22;2617;51.006;12.436;2023-04-06T04:05:25;1.30;99.90
5196;DHT22;2617;51.006;12.436;2023-04-06T04:10:28;1.20;99.90
5196;DHT22;2617;51.006;12.436;2023-04-06T04:15:30;1.20;99.90
5196;DHT22;2617;51.006;12.436;2023-04-06T04:20:33;1.20;99.90
5196;DHT22;2617;51.006;12.436;2023-04-06T04:25:35;1.20;99.90
5196;DHT22;2617;51.006;12.436;2023-04-06T04:30:38;1.30;99.90
5196;DHT22;2617;51.006;12.436;2023-04-06T04:35:41;1.30;99.90
5196;DHT22;2617;51.006;12.436;2023-04-06T04:40:43;1.30;99.90
5196;DHT22;2617;51.006;12.436;2023-04-06T04:45:46;1.30;99.90
5196;DHT22;2617;51.006;12.436;2023-04-06T04:50:49;1.40;99.90
5196;DHT22;2617;51.006;12.436;2023-04-06T04:55:51;1.30;99.90
5196;DHT22;2617;51.006;12.436;2023-04-06T05:00:54;1.40;99.90
5196;DHT22;2617;51.006;12.436;2023-04-06T05:05:56;1.40;99.90
5196;DHT22;2617;51.006;12.436;2023-04-06T05:10:59;1.50;99.90
5196;DHT22;2617;51.006;12.436;2023-04-06T05:16:02;1.90;99.90
5196;DHT22;2617;51.006;12.436;2023-04-06T05:21:05;1.90;99.90
5196;DHT22;2617;51.006;12.436;2023-04-06T05:26:08;2.10;99.90
5196;DHT22;2617;51.006;12.436;2023-04-06T05:31:11;2.20;99.90
5196;DHT22;2617;51.006;12.436;2023-04-06T05:36:14;2.30;99.90
5196;DHT22;2617;51.006;12.436;2023-04-06T05:41:17;2.30;99.90
5196;DHT22;2617;51.006;12.436;2023-04-06T05:46:20;2.70;99.90
5196;DHT22;2617;51.006;12.436;2023-04-06T05:51:23;2.60;99.90
5196;DHT22;2617;51.006;12.436;2023-04-06T05:56:25;2.80;99.90
5196;DHT22;2617;51.006;12.436;2023-04-06T06:01:28;3.00;99.90
5196;DHT22;2617;51.006;12.436;2023-04-06T06:06:31;3.20;99.90
5196;DHT22;2617;51.006;12.436;2023-04-06T06:11:33;3.50;99.90
5196;DHT22;2617;51.006;12.436;2023-04-06T06:16:36;3.70;99.90
5196;DHT22;2617;51.006;12.436;2023-04-06T06:21:38;3.80;99.90
5196;DHT22;2617;51.006;12.436;2023-04-06T06:26:42;4.00;99.90
5196;DHT22;2617;51.006;12.436;2023-04-06T06:31:44;4.00;99.90
5196;DHT22;2617;51.006;12.436;2023-04-06T06:36:47;4.30;99.90
5196;DHT22;2617;51.006;12.436;2023-04-06T06:41:50;4.20;99.90
5196;DHT22;2617;51.006;12.436;2023-04-06T06:46:53;5.00;99.30
5196;DHT22;2617;51.006;12.436;2023-04-06T06:51:55;5.00;99.30
5196;DHT22;2617;51.006;12.436;2023-04-06T06:56:58;5.30;98.70
5196;DHT22;2617;51.006;12.436;2023-04-06T07:02:01;5.70;95.50
5196;DHT22;2617;51.006;12.436;2023-04-06T07:07:03;5.70;95.50
5196;DHT22;2617;51.006;12.436;2023-04-06T07:12:06;5.80;95.20
5196;DHT22;2617;51.006;12.436;2023-04-06T07:17:09;5.80;94.20
5196;DHT22;2617;51.006;12.436;2023-04-06T07:22:11;5.90;93.30
5196;DHT22;2617;51.006;12.436;2023-04-06T07:27:14;6.00;93.20
5196;DHT22;2617;51.006;12.436;2023-04-06T07:32:16;6.10;93.70
5196;DHT22;2617;51.006;12.436;2023-04-06T07:37:18;6.00;93.40
5196;DHT22;2617;51.006;12.436;2023-04-06T07:42:21;6.10;93.60
5196;DHT22;2617;51.006;12.436;2023-04-06T07:47:23;6.20;93.10
5196;DHT22;2617;51.006;12.436;2023-04-06T07:52:26;6.40;93.10
5196;DHT22;2617;51.006;12.436;2023-04-06T07:57:28;6.60;92.00
5196;DHT22;2617;51.006;12.436;2023-04-06T08:02:32;6.70;91.90
5196;DHT22;2617;51.006;12.436;2023-04-06T08:07:34;7.00;92.10
5196;DHT22;2617;51.006;12.436;2023-04-06T08:12:37;7.40;90.90
5196;DHT22;2617;51.006;12.436;2023-04-06T08:17:39;7.60;89.60
5196;DHT22;2617;51.006;12.436;2023-04-06T08:22:42;7.90;86.20
5196;DHT22;2617;51.006;12.436;2023-04-06T08:27:44;8.10;86.20
5196;DHT22;2617;51.006;12.436;2023-04-06T08:32:47;8.30;82.90
5196;DHT22;2617;51.006;12.436;2023-04-06T08:37:49;8.50;78.50
5196;DHT22;2617;51.006;12.436;2023-04-06T08:42:54;8.70;76.10
5196;DHT22;2617;51.006;12.436;2023-04-06T08:47:56;9.00;76.50
5196;DHT22;2617;51.006;12.436;2023-04-06T08:52:59;9.20;72.10
5196;DHT22;2617;51.006;12.436;2023-04-06T08:58:02;9.20;72.00
5196;DHT22;2617;51.006;12.436;2023-04-06T09:03:05;9.70;67.00
5196;DHT22;2617;51.006;12.436;2023-04-06T09:08:08;9.80;64.80
5196;DHT22;2617;51.006;12.436;2023-04-06T09:13:11;9.90;64.80
5196;DHT22;2617;51.006;12.436;2023-04-06T09:18:13;10.10;63.60
5196;DHT22;2617;51.006;12.436;2023-04-06T09:23:18;10.40;64.50
5196;DHT22;2617;51.006;12.436;2023-04-06T09:28:21;10.90;61.70
5196;DHT22;2617;51.006;12.436;2023-04-06T09:33:23;10.90;61.60
5196;DHT22;2617;51.006;12.436;2023-04-06T09:38:26;10.90;56.60
5196;DHT22;2617;51.006;12.436;2023-04-06T09:43:28;10.50;58.90
5196;DHT22;2617;51.006;12.436;2023-04-06T09:48:32;10.30;58.60
5196;DHT22;2617;51.006;12.436;2023-04-06T09:53:34;10.30;58.60
5196;DHT22;2617;51.006;12.436;2023-04-06T09:58:38;10.70;62.50
5196;DHT22;2617;51.006;12.436;2023-04-06T10:03:49;10.90;57.60
5196;DHT22;2617;51.006;12.436;2023-04-06T10:08:48;10.90;57.50
5196;DHT22;2617;51.006;12.436;2023-04-06T10:13:50;10.80;55.00
5196;DHT22;2617;51.006;12.436;2023-04-06T10:18:57;11.10;55.30
5196;DHT22;2617;51.006;12.436;2023-04-06T10:24:00;11.10;55.20
5196;DHT22;2617;51.006;12.436;2023-04-06T10:29:03;11.50;57.80
5196;DHT22;2617;51.006;12.436;2023-04-06T10:34:05;11.70;56.30
5196;DHT22;2617;51.006;12.436;2023-04-06T10:39:09;11.30;55.60
5196;DHT22;2617;51.006;12.436;2023-04-06T10:44:21;11.20;55.40
5196;DHT22;2617;51.006;12.436;2023-04-06T10:49:24;11.40;56.80
5196;DHT22;2617;51.006;12.436;2023-04-06T10:54:26;11.70;55.10
5196;DHT22;2617;51.006;12.436;2023-04-06T10:59:29;12.10;54.10
5196;DHT22;2617;51.006;12.436;2023-04-06T11:04:32;12.20;54.70
5196;DHT22;2617;51.006;12.436;2023-04-06T11:09:34;12.20;54.60
5196;DHT22;2617;51.006;12.436;2023-04-06T11:14:37;12.30;56.10
5196;DHT22;2617;51.006;12.436;2023-04-06T11:19:39;12.30;52.30
5196;DHT22;2617;51.006;12.436;2023-04-06T11:24:42;12.20;52.00
5196;DHT22;2617;51.006;12.436;2023-04-06T11:29:44;12.30;55.10
5196;DHT22;2617;51.006;12.436;2023-04-06T11:34:49;12.30;53.10
5196;DHT22;2617;51.006;12.436;2023-04-06T11:39:54;12.30;51.10
5196;DHT22;2617;51.006;12.436;2023-04-06T11:44:57;12.30;51.10
5196;DHT22;2617;51.006;12.436;2023-04-06T11:50:05;12.30;54.10
5196;DHT22;2617;51.006;12.436;2023-04-06T11:55:13;12.50;51.20
5196;DHT22;2617;51.006;12.436;2023-04-06T12:00:16;12.50;51.00
5196;DHT22;2617;51.006;12.436;2023-04-06T12:05:19;12.40;50.60
5196;DHT22;2617;51.006;12.436;2023-04-06T12:10:22;12.20;50.20
5196;DHT22;2617;51.006;12.436;2023-04-06T12:15:25;12.20;50.10
5196;DHT22;2617;51.006;12.436;2023-04-06T12:20:28;12.30;49.60
5196;DHT22;2617;51.006;12.436;2023-04-06T12:25:30;12.30;49.60
5196;DHT22;2617;51.006;12.436;2023-04-06T12:30:34;12.40;52.30
5196;DHT22;2617;51.006;12.436;2023-04-06T12:35:36;12.30;52.60
5196;DHT22;2617;51.006;12.436;2023-04-06T12:40:40;12.50;53.00
5196;DHT22;2617;51.006;12.436;2023-04-06T12:45:42;12.30;48.90
5196;DHT22;2617;51.006;12.436;2023-04-06T12:50:53;11.80;51.70
5196;DHT22;2617;51.006;12.436;2023-04-06T12:55:47;11.70;50.70
5196;DHT22;2617;51.006;12.436;2023-04-06T13:00:50;11.80;52.10
5196;DHT22;2617;51.006;12.436;2023-04-06T13:05:53;12.40;50.80
5196;DHT22;2617;51.006;12.436;2023-04-06T13:10:55;12.40;50.80
5196;DHT22;2617;51.006;12.436;2023-04-06T13:16:00;12.60;51.20
5196;DHT22;2617;51.006;12.436;2023-04-06T13:21:02;12.90;51.30
5196;DHT22;2617;51.006;12.436;2023-04-06T13:26:05;13.10;50.10
5196;DHT22;2617;51.006;12.436;2023-04-06T13:31:08;13.20;48.90
5196;DHT22;2617;51.006;12.436;2023-04-06T13:36:11;13.10;50.40
5196;DHT22;2617;51.006;12.436;2023-04-06T13:41:20;13.00;51.00
5196;DHT22;2617;51.006;12.436;2023-04-06T13:46:23;12.50;48.40
5196;DHT22;2617;51.006;12.436;2023-04-06T13:51:25;12.50;49.20
5196;DHT22;2617;51.006;12.436;2023-04-06T13:56:28;12.30;49.40
5196;DHT22;2617;51.006;12.436;2023-04-06T14:01:30;12.30;50.30
5196;DHT22;2617;51.006;12.436;2023-04-06T14:06:33;12.80;48.90
5196;DHT22;2617;51.006;12.436;2023-04-06T14:11:36;12.40;48.40
5196;DHT22;2617;51.006;12.436;2023-04-06T14:16:39;12.30;48.20
5196;DHT22;2617;51.006;12.436;2023-04-06T14:21:41;12.40;49.40
5196;DHT22;2617;51.006;12.436;2023-04-06T14:26:44;12.70;50.00
5196;DHT22;2617;51.006;12.436;2023-04-06T14:31:47;13.10;50.10
5196;DHT22;2617;51.006;12.436;2023-04-06T14:36:49;13.40;48.90
5196;DHT22;2617;51.006;12.436;2023-04-06T14:41:52;13.40;48.90
5196;DHT22;2617;51.006;12.436;2023-04-06T14:46:54;13.20;48.00
5196;DHT22;2617;51.006;12.436;2023-04-06T14:51:57;12.70;46.80
5196;DHT22;2617;51.006;12.436;2023-04-06T14:56:59;12.70;49.50
5196;DHT22;2617;51.006;12.436;2023-04-06T15:02:02;12.90;47.20
5196;DHT22;2617;51.006;12.436;2023-04-06T15:07:05;12.90;48.90
5196;DHT22;2617;51.006;12.436;2023-04-06T15:12:07;12.90;48.90
5196;DHT22;2617;51.006;12.436;2023-04-06T15:17:11;12.90;46.60
5196;DHT22;2617;51.006;12.436;2023-04-06T15:22:13;12.90;47.20
5196;DHT22;2617;51.006;12.436;2023-04-06T15:27:15;12.50;45.80
5196;DHT22;2617;51.006;12.436;2023-04-06T15:32:18;12.20;46.40
5196;DHT22;2617;51.006;12.436;2023-04-06T15:37:21;11.90;47.10
5196;DHT22;2617;51.006;12.436;2023-04-06T15:42:23;11.80;47.00
5196;DHT22;2617;51.006;12.436;2023-04-06T15:47:26;11.60;49.50
5196;DHT22;2617;51.006;12.436;2023-04-06T15:52:28;11.40;49.30
5196;DHT22;2617;51.006;12.436;2023-04-06T15:57:31;11.20;48.90
5196;DHT22;2617;51.006;12.436;2023-04-06T16:02:33;11.00;49.70
5196;DHT22;2617;51.006;12.436;2023-04-06T16:07:35;10.80;50.50
5196;DHT22;2617;51.006;12.436;2023-04-06T16:12:38;10.80;50.70
5196;DHT22;2617;51.006;12.436;2023-04-06T16:17:40;10.70;49.70
5196;DHT22;2617;51.006;12.436;2023-04-06T16:22:43;10.60;50.90
5196;DHT22;2617;51.006;12.436;2023-04-06T16:27:45;10.60;51.70
5196;DHT22;2617;51.006;12.436;2023-04-06T16:32:48;10.60;52.30
5196;DHT22;2617;51.006;12.436;2023-04-06T16:37:50;10.60;50.70
5196;DHT22;2617;51.006;12.436;2023-04-06T16:42:52;10.40;50.80
5196;DHT22;2617;51.006;12.436;2023-04-06T16:47:55;10.30;51.00
5196;DHT22;2617;51.006;12.436;2023-04-06T16:52:57;10.20;51.70
5196;DHT22;2617;51.006;12.436;2023-04-06T16:58:00;10.00;53.00
5196;DHT22;2617;51.006;12.436;2023-04-06T17:03:03;10.00;52.90
5196;DHT22;2617;51.006;12.436;2023-04-06T17:08:05;9.90;54.10
5196;DHT22;2617;51.006;12.436;2023-04-06T17:13:08;9.80;52.90
5196;DHT22;2617;51.006;12.436;2023-04-06T17:18:10;9.70;54.30
5196;DHT22;2617;51.006;12.436;2023-04-06T17:23:14;9.60;54.80
5196;DHT22;2617;51.006;12.436;2023-04-06T17:28:16;9.40;55.10
5196;DHT22;2617;51.006;12.436;2023-04-06T17:33:18;9.30;56.20
5196;DHT22;2617;51.006;12.436;2023-04-06T17:38:21;9.10;56.30
5196;DHT22;2617;51.006;12.436;2023-04-06T17:43:23;9.10;57.50
5196;DHT22;2617;51.006;12.436;2023-04-06T17:48:26;8.90;59.00
5196;DHT22;2617;51.006;12.436;2023-04-06T17:53:28;8.70;60.00
5196;DHT22;2617;51.006;12.436;2023-04-06T17:58:31;8.40;61.40
5196;DHT22;2617;51.006;12.436;2023-04-06T18:03:33;8.10;63.80
5196;DHT22;2617;51.006;12.436;2023-04-06T18:08:35;7.90;65.70
5196;DHT22;2617;51.006;12.436;2023-04-06T18:13:38;7.70;67.50
5196;DHT22;2617;51.006;12.436;2023-04-06T18:18:40;7.50;69.10
5196;DHT22;2617;51.006;12.436;2023-04-06T18:23:45;7.50;71.70
5196;DHT22;2617;51.006;12.436;2023-04-06T18:28:47;7.30;73.40
5196;DHT22;2617;51.006;12.436;2023-04-06T18:33:49;7.10;74.90
5196;DHT22;2617;51.006;12.436;2023-04-06T18:38:51;6.80;76.50
5196;DHT22;2617;51.006;12.436;2023-04-06T18:43:54;6.70;78.00
5196;DHT22;2617;51.006;12.436;2023-04-06T18:48:57;6.30;81.40
5196;DHT22;2617;51.006;12.436;2023-04-06T18:53:59;6.30;81.40
5196;DHT22;2617;51.006;12.436;2023-04-06T18:59:03;6.00;84.70
5196;DHT22;2617;51.006;12.436;2023-04-06T19:04:05;5.90;84.10
5196;DHT22;2617;51.006;12.436;2023-04-06T19:09:08;5.80;84.80
5196;DHT22;2617;51.006;12.436;2023-04-06T19:14:10;5.70;84.70
5196;DHT22;2617;51.006;12.436;2023-04-06T19:19:12;5.70;84.30
5196;DHT22;2617;51.006;12.436;2023-04-06T19:24:15;5.50;84.70
5196;DHT22;2617;51.006;12.436;2023-04-06T19:29:17;5.40;85.10
5196;DHT22;2617;51.006;12.436;2023-04-06T19:34:21;5.30;85.70
5196;DHT22;2617;51.006;12.436;2023-04-06T19:39:23;5.20;85.60
5196;DHT22;2617;51.006;12.436;2023-04-06T19:44:25;5.20;86.20
5196;DHT22;2617;51.006;12.436;2023-04-06T19:49:28;5.10;86.70
5196;DHT22;2617;51.006;12.436;2023-04-06T19:54:30;5.00;87.20
5196;DHT22;2617;51.006;12.436;2023-04-06T19:59:33;5.10;87.60
5196;DHT22;2617;51.006;12.436;2023-04-06T20:04:35;4.90;88.50
5196;DHT22;2617;51.006;12.436;2023-04-06T20:09:38;4.90;89.10
5196;DHT22;2617;51.006;12.436;2023-04-06T20:14:40;4.70;89.80
5196;DHT22;2617;51.006;12.436;2023-04-06T20:19:42;4.60;90.20
5196;DHT22;2617;51.006;12.436;2023-04-06T20:24:46;4.50;90.60
5196;DHT22;2617;51.006;12.436;2023-04-06T20:29:48;4.40;90.90
5196;DHT22;2617;51.006;12.436;2023-04-06T20:34:51;4.30;91.10
5196;DHT22;2617;51.006;12.436;2023-04-06T20:39:53;4.30;91.20
5196;DHT22;2617;51.006;12.436;2023-04-06T20:44:56;4.30;91.20
5196;DHT22;2617;51.006;12.436;2023-04-06T20:49:59;4.30;91.50
5196;DHT22;2617;51.006;12.436;2023-04-06T20:55:01;4.20;91.60
5196;DHT22;2617;51.006;12.436;2023-04-06T21:00:05;4.20;92.00
5196;DHT22;2617;51.006;12.436;2023-04-06T21:05:08;4.10;92.00
5196;DHT22;2617;51.006;12.436;2023-04-06T21:10:11;4.10;92.40
5196;DHT22;2617;51.006;12.436;2023-04-06T21:15:14;4.00;92.30
5196;DHT22;2617;51.006;12.436;2023-04-06T21:20:17;3.90;92.60
5196;DHT22;2617;51.006;12.436;2023-04-06T21:25:19;3.80;92.90
5196;DHT22;2617;51.006;12.436;2023-04-06T21:30:21;3.60;93.30
5196;DHT22;2617;51.006;12.436;2023-04-06T21:35:24;3.50;93.80
5196;DHT22;2617;51.006;12.436;2023-04-06T21:40:26;3.30;94.40
5196;DHT22;2617;51.006;12.436;2023-04-06T21:45:29;3.10;95.00
5196;DHT22;2617;51.006;12.436;2023-04-06T21:50:31;3.00;95.60
5196;DHT22;2617;51.006;12.436;2023-04-06T21:55:33;2.80;96.00
5196;DHT22;2617;51.006;12.436;2023-04-06T22:00:36;2.80;96.40
5196;DHT22;2617;51.006;12.436;2023-04-06T22:05:39;2.60;97.40
5196;DHT22;2617;51.006;12.436;2023-04-06T22:10:41;2.50;97.40
5196;DHT22;2617;51.006;12.436;2023-04-06T22:15:44;2.50;98.00
5196;DHT22;2617;51.006;12.436;2023-04-06T22:20:46;2.40;98.40
5196;DHT22;2617;51.006;12.436;2023-04-06T22:25:49;2.30;98.90
5196;DHT22;2617;51.006;12.436;2023-04-06T22:30:52;2.20;99.70
5196;DHT22;2617;51.006;12.436;2023-04-06T22:35:54;2.20;99.70
5196;DHT22;2617;51.006;12.436;2023-04-06T22:40:57;2.10;99.90
5196;DHT22;2617;51.006;12.436;2023-04-06T22:45:59;2.00;99.90
5196;DHT22;2617;51.006;12.436;2023-04-06T22:51:01;2.00;99.90
5196;DHT22;2617;51.006;12.436;2023-04-06T22:56:04;1.90;99.90
5196;DHT22;2617;51.006;12.436;2023-04-06T23:01:07;1.80;99.90
5196;DHT22;2617;51.006;12.436;2023-04-06T23:06:10;1.80;99.90
5196;DHT22;2617;51.006;12.436;2023-04-06T23:11:12;1.80;99.90
5196;DHT22;2617;51.006;12.436;2023-04-06T23:16:15;1.80;99.90
5196;DHT22;2617;51.006;12.436;2023-04-06T23:21:17;1.80;99.90
5196;DHT22;2617;51.006;12.436;2023-04-06T23:26:20;1.80;99.90
5196;DHT22;2617;51.006;12.436;2023-04-06T23:31:22;1.70;99.90
5196;DHT22;2617;51.006;12.436;2023-04-06T23:36:24;1.70;99.90
5196;DHT22;2617;51.006;12.436;2023-04-06T23:41:28;1.70;99.90
5196;DHT22;2617;51.006;12.436;2023-04-06T23:46:30;1.70;99.90
5196;DHT22;2617;51.006;12.436;2023-04-06T23:51:33;1.70;99.90
5196;DHT22;2617;51.006;12.436;2023-04-06T23:56:36;1.70;99.90
